createdAt,value
2023-03-21T00:00:44.919Z,85728.00
2023-03-21T00:03:12.720Z,85841.97
2023-03-21T00:05:45.866Z,85682.72
2023-03-21T00:08:13.048Z,85699.25
2023-03-21T00:10:42.920Z,85607.28
2023-03-21T00:13:13.569Z,85735.44
2023-03-21T00:16:03.994Z,85575.59
2023-03-21T00:18:42.584Z,85633.25
2023-03-21T00:24:00.612Z,85559.91
2023-03-21T00:26:28.002Z,85610.59
2023-03-21T00:28:55.418Z,85802.00
2023-03-21T00:31:22.668Z,85556.47
2023-03-21T00:33:50.630Z,85618.91
2023-03-21T00:36:18.207Z,85645.72
2023-03-21T00:38:46.148Z,85738.22
2023-03-21T00:41:26.228Z,85702.44
2023-03-21T00:44:02.343Z,85703.25
2023-03-21T00:46:39.806Z,85788.34
2023-03-21T00:49:09.843Z,85749.94
2023-03-21T00:51:37.043Z,85780.09
2023-03-21T00:54:06.127Z,85649.72
2023-03-21T00:56:33.487Z,85666.06
2023-03-21T00:59:00.638Z,85691.47
2023-03-21T01:01:32.277Z,85678.47
2023-03-21T01:04:07.837Z,85586.72
2023-03-21T01:06:40.566Z,85517.47
2023-03-21T01:09:12.560Z,85503.06
2023-03-21T01:11:40.318Z,85752.59
2023-03-21T01:14:21.283Z,85682.72
2023-03-21T01:16:53.454Z,85568.88
2023-03-21T01:19:29.150Z,85499.63
2023-03-21T01:22:00.386Z,85668.25
2023-03-21T01:24:28.026Z,85661.31
2023-03-21T01:26:55.659Z,85658.53
2023-03-21T01:29:22.776Z,85530.34
2023-03-21T01:31:49.969Z,85634.56
2023-03-21T01:34:18.194Z,85475.66
2023-03-21T01:36:45.500Z,85474.25
2023-03-21T01:39:18.361Z,85502.38
2023-03-21T01:41:48.554Z,85517.41
2023-03-21T01:44:21.604Z,85491.38
2023-03-21T01:47:10.641Z,85443.41
2023-03-21T01:50:01.279Z,85613.28
2023-03-21T01:52:42.026Z,85451.56
2023-03-21T01:55:14.966Z,85605.66
2023-03-21T01:58:05.407Z,85554.28
2023-03-21T02:00:57.043Z,85609.69
2023-03-21T02:03:51.084Z,85555.00
2023-03-21T02:06:41.598Z,85696.00
2023-03-21T02:09:25.339Z,85597.38
2023-03-21T02:11:55.534Z,85607.59
2023-03-21T02:14:29.272Z,85434.34
2023-03-21T02:17:22.986Z,85689.22
2023-03-21T02:20:25.453Z,85682.34
2023-03-21T02:23:20.009Z,85598.06
2023-03-21T02:26:06.849Z,85697.53
2023-03-21T02:28:47.569Z,85693.47
2023-03-21T02:31:21.004Z,85687.94
2023-03-21T02:34:14.044Z,85683.88
2023-03-21T02:37:01.306Z,85444.09
2023-03-21T02:39:51.448Z,85701.88
2023-03-21T02:42:59.410Z,85676.38
2023-03-21T02:45:36.549Z,85583.84
2023-03-21T02:48:20.306Z,85443.44
2023-03-21T02:50:57.101Z,85421.44
2023-03-21T02:53:29.026Z,85596.22
2023-03-21T02:55:59.065Z,85586.47
2023-03-21T02:58:32.318Z,85451.59
2023-03-21T03:01:00.668Z,85409.81
2023-03-21T03:03:35.318Z,85437.28
2023-03-21T03:06:13.676Z,85416.69
2023-03-21T03:09:02.592Z,85675.75
2023-03-21T03:11:35.858Z,85659.31
2023-03-21T03:14:46.796Z,85545.50
2023-03-21T03:17:38.017Z,85680.59
2023-03-21T03:20:39.253Z,85684.03
2023-03-21T03:23:39.316Z,85503.75
2023-03-21T03:26:12.435Z,85588.09
2023-03-21T03:28:46.881Z,85403.00
2023-03-21T03:31:26.123Z,85681.34
2023-03-21T03:34:04.858Z,85568.81
2023-03-21T03:36:39.092Z,85588.72
2023-03-21T03:39:13.717Z,85429.72
2023-03-21T03:42:12.514Z,85451.59
2023-03-21T03:44:49.943Z,85599.56
2023-03-21T03:47:33.744Z,85515.28
2023-03-21T03:50:29.157Z,85590.69
2023-03-21T03:53:18.119Z,85600.94
2023-03-21T03:55:48.981Z,85596.13
2023-03-21T03:58:24.023Z,85432.41
2023-03-21T04:00:57.310Z,85573.59
2023-03-21T04:03:24.602Z,85648.34
2023-03-21T04:05:52.629Z,85612.75
2023-03-21T04:08:19.937Z,85469.47
2023-03-21T04:10:52.254Z,85588.00
2023-03-21T04:13:20.114Z,85562.63
2023-03-21T04:16:07.143Z,85446.88
2023-03-21T04:18:34.278Z,85459.31
2023-03-21T04:21:01.579Z,85542.91
2023-03-21T04:23:30.322Z,85543.56
2023-03-21T04:25:57.599Z,85601.91
2023-03-21T04:28:36.467Z,85440.78
2023-03-21T04:31:27.493Z,85615.66
2023-03-21T04:34:10.173Z,85590.91
2023-03-21T04:36:44.473Z,85600.56
2023-03-21T04:39:15.080Z,85617.03
2023-03-21T04:41:46.492Z,85592.28
2023-03-21T04:44:15.699Z,85667.75
2023-03-21T04:46:43.740Z,85467.53
2023-03-21T04:49:12.184Z,85613.50
2023-03-21T04:51:39.458Z,85460.69
2023-03-21T04:56:38.225Z,85589.56
2023-03-21T04:59:11.913Z,85607.44
2023-03-21T05:01:41.365Z,85577.84
2023-03-21T05:04:10.226Z,85606.00
2023-03-21T05:06:37.672Z,85595.66
2023-03-21T05:09:07.142Z,85586.72
2023-03-21T05:11:38.052Z,85430.50
2023-03-21T05:14:07.817Z,85599.06
2023-03-21T05:16:36.672Z,85467.53
2023-03-21T05:19:04.055Z,85431.81
2023-03-21T05:21:41.668Z,85476.38
2023-03-21T05:24:15.962Z,85595.59
2023-03-21T05:26:44.298Z,85431.81
2023-03-21T05:29:15.650Z,85585.28
2023-03-21T05:31:45.912Z,85583.88
2023-03-21T05:34:15.582Z,85586.63
2023-03-21T05:36:43.483Z,85587.25
2023-03-21T05:39:11.806Z,85574.97
2023-03-21T05:41:44.244Z,85513.88
2023-03-21T05:44:11.328Z,85534.44
2023-03-21T05:46:39.737Z,85570.00
2023-03-21T05:49:06.801Z,85441.19
2023-03-21T05:51:34.213Z,85578.09
2023-03-21T05:54:01.737Z,85575.28
2023-03-21T05:56:28.835Z,85652.13
2023-03-21T05:59:01.102Z,85389.13
2023-03-21T06:01:28.796Z,85409.56
2023-03-21T06:04:08.448Z,85582.06
2023-03-21T06:06:36.275Z,85565.56
2023-03-21T06:09:04.933Z,85588.91
2023-03-21T06:11:35.561Z,85565.38
2023-03-21T06:14:28.773Z,85564.00
2023-03-21T06:17:14.285Z,85543.47
2023-03-21T06:19:47.302Z,85579.69
2023-03-21T06:22:19.680Z,85439.25
2023-03-21T06:24:46.751Z,85423.53
2023-03-21T06:27:17.244Z,85435.22
2023-03-21T06:29:50.541Z,85506.19
2023-03-21T06:32:18.274Z,85583.41
2023-03-21T06:34:46.551Z,85435.00
2023-03-21T06:37:15.713Z,85677.25
2023-03-21T06:39:42.912Z,85465.59
2023-03-21T06:42:10.642Z,85588.75
2023-03-21T06:44:37.921Z,85656.41
2023-03-21T06:47:08.528Z,85407.31
2023-03-21T06:49:35.695Z,85596.19
2023-03-21T06:52:08.099Z,85476.44
2023-03-21T06:54:35.354Z,85607.75
2023-03-21T06:57:09.918Z,85652.25
2023-03-21T06:59:38.476Z,85410.50
2023-03-21T07:02:18.659Z,85582.81
2023-03-21T07:05:06.963Z,85523.19
2023-03-21T07:07:34.106Z,85661.25
2023-03-21T07:10:01.494Z,85450.63
2023-03-21T07:12:34.423Z,85587.06
2023-03-21T07:15:20.967Z,85566.44
2023-03-21T07:17:48.229Z,85417.41
2023-03-21T07:20:15.496Z,85469.16
2023-03-21T07:22:42.737Z,85426.28
2023-03-21T07:25:11.194Z,85449.34
2023-03-21T07:27:41.018Z,85436.16
2023-03-21T07:30:11.455Z,85535.84
2023-03-21T07:32:39.706Z,85457.88
2023-03-21T07:35:13.314Z,85433.13
2023-03-21T07:37:41.619Z,85420.56
2023-03-21T07:40:10.861Z,85441.63
2023-03-21T07:42:42.596Z,85565.75
2023-03-21T07:45:16.583Z,85406.44
2023-03-21T07:47:45.825Z,85646.59
2023-03-21T07:50:13.766Z,85453.38
2023-03-21T07:52:41.425Z,85472.88
2023-03-21T07:55:09.013Z,85560.16
2023-03-21T07:57:36.763Z,85587.66
2023-03-21T08:00:07.215Z,85508.91
2023-03-21T08:02:40.302Z,85564.25
2023-03-21T08:05:08.354Z,85568.00
2023-03-21T08:07:35.468Z,85424.81
2023-03-21T08:10:02.491Z,85491.63
2023-03-21T08:12:29.606Z,85591.22
2023-03-21T08:14:58.425Z,85475.19
2023-03-21T08:19:54.217Z,85579.47
2023-03-21T08:22:21.843Z,85548.34
2023-03-21T08:24:49.165Z,85465.09
2023-03-21T08:27:16.452Z,85429.47
2023-03-21T08:29:43.623Z,85561.44
2023-03-21T08:32:11.182Z,85422.50
2023-03-21T08:34:38.222Z,85568.78
2023-03-21T08:37:05.444Z,85455.88
2023-03-21T08:39:32.531Z,85427.22
2023-03-21T08:41:59.621Z,85480.41
2023-03-21T08:44:27.136Z,85567.44
2023-03-21T08:46:54.312Z,85570.53
2023-03-21T08:49:21.442Z,85559.03
2023-03-21T08:51:48.415Z,85574.13
2023-03-21T08:54:22.938Z,85426.53
2023-03-21T08:56:50.128Z,85430.25
2023-03-21T08:59:17.410Z,85419.25
2023-03-21T09:01:45.283Z,85420.88
2023-03-21T09:04:12.514Z,85419.19
2023-03-21T09:06:49.905Z,85422.41
2023-03-21T09:09:17.133Z,85451.88
2023-03-21T09:11:44.498Z,85564.94
2023-03-21T09:14:11.940Z,85640.28
2023-03-21T09:16:39.293Z,85567.94
2023-03-21T09:19:08.818Z,85452.28
2023-03-21T09:21:37.072Z,85407.69
2023-03-21T09:24:05.771Z,85494.00
2023-03-21T09:26:33.741Z,85524.94
2023-03-21T09:29:01.216Z,85428.06
2023-03-21T09:31:28.872Z,85571.03
2023-03-21T09:33:58.148Z,85540.69
2023-03-21T09:36:27.494Z,85632.38
2023-03-21T09:38:56.973Z,85414.03
2023-03-21T09:41:33.228Z,85618.44
2023-03-21T09:44:24.787Z,85619.66
2023-03-21T09:47:11.690Z,85552.78
2023-03-21T09:49:43.887Z,85495.63
2023-03-21T09:52:24.683Z,85499.22
2023-03-21T09:54:58.255Z,85419.97
2023-03-21T09:57:33.698Z,85622.56
2023-03-21T10:00:25.859Z,85517.84
2023-03-21T10:03:00.014Z,85409.94
2023-03-21T10:05:33.520Z,85639.06
2023-03-21T10:08:07.530Z,85418.41
2023-03-21T10:10:49.317Z,85532.56
2023-03-21T10:13:37.763Z,85554.47
2023-03-21T10:16:16.185Z,85427.66
2023-03-21T10:18:44.607Z,85404.44
2023-03-21T10:21:42.959Z,85581.09
2023-03-21T10:24:06.611Z,85532.44
2023-03-21T10:26:35.495Z,85462.84
2023-03-21T10:29:03.687Z,85453.22
2023-03-21T10:31:32.835Z,85381.38
2023-03-21T10:34:06.769Z,85383.84
2023-03-21T10:36:35.065Z,85534.31
2023-03-21T10:39:08.420Z,85512.22
2023-03-21T10:44:22.247Z,85450.38
2023-03-21T10:46:56.069Z,85398.19
2023-03-21T10:49:26.971Z,85369.88
2023-03-21T10:51:58.411Z,85396.19
2023-03-21T10:54:31.964Z,85509.34
2023-03-21T10:57:16.493Z,85453.31
2023-03-21T10:59:51.791Z,85389.03
2023-03-21T11:02:28.838Z,85501.84
2023-03-21T11:05:00.953Z,85517.53
2023-03-21T11:07:34.258Z,85352.31
2023-03-21T11:10:17.176Z,85486.72
2023-03-21T11:12:49.101Z,85567.41
2023-03-21T11:15:33.015Z,85324.13
2023-03-21T11:18:13.549Z,85397.91
2023-03-21T11:20:50.233Z,85470.47
2023-03-21T11:23:20.621Z,85415.72
2023-03-21T11:25:51.749Z,85476.81
2023-03-21T11:28:24.568Z,85531.75
2023-03-21T11:31:00.916Z,85511.94
2023-03-21T11:33:33.777Z,85484.94
2023-03-21T11:36:05.915Z,85529.38
2023-03-21T11:38:38.488Z,85529.84
2023-03-21T11:41:06.918Z,85534.97
2023-03-21T11:43:39.443Z,85499.47
2023-03-21T11:46:09.734Z,85532.63
2023-03-21T11:48:49.109Z,85530.06
2023-03-21T11:51:19.330Z,85528.97
2023-03-21T11:53:48.752Z,85450.03
2023-03-21T11:56:29.797Z,85520.50
2023-03-21T11:59:18.287Z,85519.84
2023-03-21T12:02:20.310Z,85518.19
2023-03-21T12:04:55.369Z,85524.88
2023-03-21T12:07:41.729Z,85525.72
2023-03-21T12:10:08.770Z,85521.75
2023-03-21T12:12:50.806Z,85490.53
2023-03-21T12:15:31.430Z,85524.47
2023-03-21T12:18:30.519Z,85515.13
2023-03-21T12:21:03.234Z,85526.09
2023-03-21T12:23:52.107Z,85525.63
2023-03-21T12:26:30.535Z,85523.00
2023-03-21T12:29:12.515Z,85514.22
2023-03-21T12:31:54.690Z,85509.88
2023-03-21T12:34:34.172Z,85518.25
2023-03-21T12:37:32.761Z,85515.00
2023-03-21T12:40:25.894Z,85497.06
2023-03-21T12:42:58.430Z,85514.78
2023-03-21T12:45:37.328Z,85511.47
2023-03-21T12:48:37.414Z,85506.63
2023-03-21T12:51:09.098Z,85503.22
2023-03-21T12:53:54.068Z,85502.78
2023-03-21T12:56:27.636Z,85477.56
2023-03-21T12:59:20.701Z,85480.34
2023-03-21T13:01:52.200Z,85463.84
2023-03-21T13:04:39.403Z,85497.94
2023-03-21T13:07:12.935Z,85491.00
2023-03-21T13:09:41.950Z,85453.41
2023-03-21T13:12:22.370Z,85484.50
2023-03-21T13:15:23.666Z,85486.84
2023-03-21T13:17:57.340Z,85480.13
2023-03-21T13:20:51.761Z,85464.69
2023-03-21T13:23:22.964Z,85473.28
2023-03-21T13:25:52.828Z,85440.28
2023-03-21T13:28:27.317Z,85467.16
2023-03-21T13:31:14.492Z,85461.06
2023-03-21T13:33:46.792Z,85450.94
2023-03-21T13:36:17.052Z,85462.69
2023-03-21T13:38:50.484Z,85458.56
2023-03-21T13:41:47.404Z,85452.81
2023-03-21T13:44:33.830Z,85452.63
2023-03-21T13:47:06.788Z,85452.13
2023-03-21T13:49:38.398Z,85452.75
2023-03-21T13:52:12.164Z,85446.50
2023-03-21T13:54:39.227Z,85444.13
2023-03-21T13:57:07.599Z,85442.31
2023-03-21T13:59:37.536Z,85446.78
2023-03-21T14:02:27.561Z,85435.09
2023-03-21T14:05:05.675Z,85439.53
2023-03-21T14:07:43.554Z,85441.25
2023-03-21T14:10:43.131Z,85393.41
2023-03-21T14:13:16.466Z,85412.63
2023-03-21T14:15:55.313Z,85362.97
2023-03-21T14:18:48.102Z,85443.00
2023-03-21T14:21:23.737Z,85401.84
2023-03-21T14:24:00.490Z,85449.25
2023-03-21T14:26:34.272Z,85435.53
2023-03-21T14:29:09.605Z,85380.75
2023-03-21T14:31:48.273Z,85442.19
2023-03-21T14:34:17.032Z,85447.16
2023-03-21T14:36:51.715Z,85425.47
2023-03-21T14:39:28.317Z,85429.81
2023-03-21T14:42:01.406Z,85434.16
2023-03-21T14:44:54.859Z,85437.84
2023-03-21T14:47:25.794Z,85424.38
2023-03-21T14:49:53.604Z,85405.38
2023-03-21T14:52:32.790Z,85425.97
2023-03-21T14:55:01.981Z,85426.34
2023-03-21T14:57:32.681Z,85428.41
2023-03-21T15:00:10.787Z,85394.34
2023-03-21T15:02:40.261Z,85437.72
2023-03-21T15:05:19.557Z,85438.94
2023-03-21T15:08:14.827Z,85441.25
2023-03-21T15:10:42.828Z,85416.06
2023-03-21T15:13:22.728Z,85437.28
2023-03-21T15:15:50.264Z,85401.78
2023-03-21T15:18:34.675Z,85433.63
2023-03-21T15:21:06.719Z,85403.56
2023-03-21T15:23:41.810Z,85426.06
2023-03-21T15:26:15.819Z,85358.00
2023-03-21T15:28:46.345Z,85392.84
2023-03-21T15:31:23.376Z,85430.91
2023-03-21T15:33:53.350Z,85427.66
2023-03-21T15:36:25.661Z,85426.97
2023-03-21T15:38:54.099Z,85430.44
2023-03-21T15:41:21.038Z,85429.72
2023-03-21T15:44:06.661Z,85439.00
2023-03-21T15:46:48.405Z,85431.75
2023-03-21T15:49:15.689Z,85431.94
2023-03-21T15:51:55.746Z,85428.66
2023-03-21T15:54:27.327Z,85437.81
2023-03-21T15:56:57.229Z,85420.59
2023-03-21T15:59:28.569Z,85433.88
2023-03-21T16:01:55.758Z,85428.91
2023-03-21T16:04:24.929Z,85414.81
2023-03-21T16:06:58.299Z,85437.31
2023-03-21T16:09:25.597Z,85439.28
2023-03-21T16:11:59.621Z,85424.75
2023-03-21T16:14:30.174Z,85428.25
2023-03-21T16:16:59.258Z,85443.56
2023-03-21T16:19:28.936Z,85433.06
2023-03-21T16:21:55.920Z,85417.75
2023-03-21T16:24:23.057Z,85427.44
2023-03-21T16:26:53.721Z,85401.94
2023-03-21T16:29:20.828Z,85433.88
2023-03-21T16:31:49.556Z,85418.50
2023-03-21T16:34:16.767Z,85426.44
2023-03-21T16:36:44.266Z,85423.88
2023-03-21T16:39:22.681Z,85422.28
2023-03-21T16:41:51.621Z,85426.56
2023-03-21T16:44:21.671Z,85429.47
2023-03-21T16:46:49.610Z,85435.91
2023-03-21T16:49:24.699Z,85412.94
2023-03-21T16:51:52.692Z,85422.91
2023-03-21T16:54:19.911Z,85435.53
2023-03-21T16:56:53.644Z,85417.78
2023-03-21T16:59:21.506Z,85406.81
2023-03-21T17:01:49.173Z,85432.84
2023-03-21T17:04:18.550Z,85432.50
2023-03-21T17:06:49.430Z,85419.88
2023-03-21T17:09:19.431Z,85396.75
2023-03-21T17:11:46.895Z,85423.25
2023-03-21T17:14:18.040Z,85400.63
2023-03-21T17:16:45.868Z,85417.69
2023-03-21T17:19:19.063Z,85422.41
2023-03-21T17:21:47.067Z,85414.31
2023-03-21T17:24:14.229Z,85394.91
2023-03-21T17:26:41.398Z,85408.97
2023-03-21T17:29:11.894Z,85404.09
2023-03-21T17:31:39.029Z,85375.25
2023-03-21T17:34:06.209Z,85409.56
2023-03-21T17:36:36.241Z,85398.78
2023-03-21T17:39:06.199Z,85402.09
2023-03-21T17:41:33.322Z,85404.44
2023-03-21T17:44:00.847Z,85381.88
2023-03-21T17:46:29.263Z,85395.72
2023-03-21T17:48:57.022Z,85322.59
2023-03-21T17:51:26.259Z,85390.72
2023-03-21T17:53:53.460Z,85375.41
2023-03-21T17:56:27.318Z,85362.66
2023-03-21T17:58:54.905Z,85402.97
2023-03-21T18:01:23.466Z,85405.91
2023-03-21T18:03:51.015Z,85382.94
2023-03-21T18:06:20.947Z,85413.38
2023-03-21T18:08:49.513Z,85392.06
2023-03-21T18:11:17.706Z,85395.63
2023-03-21T18:13:45.277Z,85394.88
2023-03-21T18:16:15.388Z,85409.50
2023-03-21T18:18:42.939Z,85385.06
2023-03-21T18:21:11.004Z,85406.81
2023-03-21T18:23:39.498Z,85402.72
2023-03-21T18:26:08.120Z,85407.34
2023-03-21T18:28:41.200Z,85401.28
2023-03-21T18:31:19.026Z,85408.41
2023-03-21T18:33:48.349Z,85410.50
2023-03-21T18:36:24.711Z,85392.19
2023-03-21T18:38:52.813Z,85409.25
2023-03-21T18:41:21.187Z,85390.59
2023-03-21T18:44:11.804Z,85415.28
2023-03-21T18:46:37.099Z,85411.09
2023-03-21T18:49:42.202Z,85380.44
2023-03-21T18:51:52.742Z,85370.16
2023-03-21T18:54:20.607Z,85393.50
2023-03-21T18:57:34.275Z,85370.47
2023-03-21T18:59:39.476Z,85384.34
2023-03-21T19:02:06.891Z,85363.38
2023-03-21T19:04:34.338Z,85385.47
2023-03-21T19:07:01.502Z,85376.28
2023-03-21T19:09:31.909Z,85384.38
2023-03-21T19:12:03.515Z,85408.88
2023-03-21T19:14:30.595Z,85391.25
2023-03-21T19:19:46.186Z,85381.91
2023-03-21T19:22:13.440Z,85394.81
2023-03-21T19:25:05.848Z,85321.84
2023-03-21T19:27:34.833Z,85339.72
2023-03-21T19:30:13.979Z,85391.59
2023-03-21T19:32:42.385Z,85410.59
2023-03-21T19:35:09.789Z,85389.34
2023-03-21T19:37:36.876Z,85380.53
2023-03-21T19:40:06.431Z,85402.03
2023-03-21T19:42:36.410Z,85374.19
2023-03-21T19:45:05.612Z,85406.31
2023-03-21T19:47:32.939Z,85405.00
2023-03-21T19:50:47.343Z,85373.63
2023-03-21T19:52:47.604Z,85408.50
2023-03-21T19:55:15.127Z,85420.41
2023-03-21T19:57:42.361Z,85414.78
2023-03-21T20:00:18.993Z,85395.19
2023-03-21T20:02:47.294Z,85407.16
2023-03-21T20:05:16.674Z,85363.28
2023-03-21T20:07:44.666Z,85405.56
2023-03-21T20:10:11.843Z,85395.50
2023-03-21T20:12:38.933Z,85416.81
2023-03-21T20:15:17.007Z,85423.34
2023-03-21T20:17:45.504Z,85412.81
2023-03-21T20:20:15.882Z,85405.84
2023-03-21T20:23:05.758Z,85362.06
2023-03-21T20:25:32.832Z,85402.91
2023-03-21T20:28:15.094Z,85365.56
2023-03-21T20:30:51.560Z,85382.63
2023-03-21T20:33:18.917Z,85388.63
2023-03-21T20:36:30.875Z,85389.84
2023-03-21T20:38:34.258Z,85382.25
2023-03-21T20:41:03.027Z,85361.22
2023-03-21T20:46:18.396Z,85375.97
2023-03-21T20:48:54.752Z,85373.84
2023-03-21T20:54:11.249Z,85377.28
2023-03-21T20:56:38.454Z,85385.44
2023-03-21T20:59:17.356Z,85384.09
2023-03-21T21:01:51.228Z,85386.84
2023-03-21T21:04:20.240Z,85376.09
2023-03-21T21:06:48.853Z,85372.75
2023-03-21T21:09:16.883Z,85367.94
2023-03-21T21:14:31.089Z,85342.75
2023-03-21T21:16:58.979Z,85367.06
2023-03-21T21:19:26.508Z,85352.91
2023-03-21T21:21:53.671Z,85373.50
2023-03-21T21:24:23.604Z,85340.69
2023-03-21T21:26:51.085Z,85369.28
2023-03-21T21:29:18.592Z,85337.94
2023-03-21T21:31:48.865Z,85334.63
2023-03-21T21:34:18.276Z,85354.53
2023-03-21T21:36:45.837Z,85344.22
2023-03-21T21:39:16.109Z,85366.69
2023-03-21T21:41:43.421Z,85366.75
2023-03-21T21:44:11.293Z,85340.19
2023-03-21T21:46:39.062Z,85357.34
2023-03-21T21:49:06.134Z,85358.59
2023-03-21T21:51:34.199Z,85362.13
2023-03-21T21:54:03.896Z,85331.72
2023-03-21T21:56:38.657Z,85375.66
2023-03-21T21:59:05.741Z,85326.56
2023-03-21T22:01:34.921Z,85329.59
2023-03-21T22:04:06.927Z,85376.88
2023-03-21T22:06:35.037Z,85328.50
2023-03-21T22:09:04.048Z,85375.38
2023-03-21T22:11:31.295Z,85379.44
2023-03-21T22:13:58.264Z,85376.00
2023-03-21T22:16:25.565Z,85350.19
2023-03-21T22:18:53.088Z,85330.47
2023-03-21T22:21:20.072Z,85374.78
2023-03-21T22:23:47.265Z,85347.13
2023-03-21T22:26:14.825Z,85375.69
2023-03-21T22:28:43.307Z,85374.91
2023-03-21T22:31:13.098Z,85379.00
2023-03-21T22:33:40.154Z,85376.88
2023-03-21T22:36:07.700Z,85309.50
2023-03-21T22:38:37.073Z,85379.00
2023-03-21T22:41:06.200Z,85338.13
2023-03-21T22:43:35.556Z,85372.53
2023-03-21T22:46:04.828Z,85375.00
2023-03-21T22:48:32.981Z,85349.19
2023-03-21T22:51:00.825Z,85350.69
2023-03-21T22:53:28.159Z,85375.06
2023-03-21T22:55:55.986Z,85381.25
2023-03-21T22:58:23.553Z,85343.75
2023-03-21T23:00:50.753Z,85378.56
2023-03-21T23:03:18.258Z,85350.59
2023-03-21T23:05:45.932Z,85378.56
2023-03-21T23:08:13.360Z,85372.34
2023-03-21T23:10:43.862Z,85376.47
2023-03-21T23:13:11.133Z,85357.44
2023-03-21T23:15:41.289Z,85384.78
2023-03-21T23:18:09.079Z,85361.47
2023-03-21T23:20:36.420Z,85375.94
2023-03-21T23:23:03.600Z,85335.72
2023-03-21T23:25:30.696Z,85379.44
2023-03-21T23:27:57.844Z,85376.63
2023-03-21T23:30:25.062Z,85385.00
2023-03-21T23:32:52.545Z,85372.56
2023-03-21T23:35:19.775Z,85358.97
2023-03-21T23:37:52.287Z,85329.03
2023-03-21T23:40:21.056Z,85365.75
2023-03-21T23:42:48.313Z,85358.28
2023-03-21T23:45:15.672Z,85372.56
2023-03-21T23:47:42.707Z,85376.75
2023-03-21T23:50:11.007Z,85369.78
2023-03-21T23:52:38.792Z,85347.31
2023-03-21T23:55:06.117Z,85331.63
2023-03-21T23:57:33.254Z,85356.16
